sensor_id;sensor_type;location;lat;lon;timestamp;P1;durP1;ratioP1;P2;durP2;ratioP2
2906;SDS011;1463;51.070;16.998;2023-07-13T00:02:02;6.37;;;3.10;;
2906;SDS011;1463;51.070;16.998;2023-07-13T00:04:30;5.27;;;2.90;;
2906;SDS011;1463;51.070;16.998;2023-07-13T00:06:58;4.50;;;3.17;;
2906;SDS011;1463;51.070;16.998;2023-07-13T00:09:27;6.80;;;2.90;;
2906;SDS011;1463;51.070;16.998;2023-07-13T00:11:58;4.70;;;3.00;;
2906;SDS011;1463;51.070;16.998;2023-07-13T00:14:29;4.87;;;3.13;;
2906;SDS011;1463;51.070;16.998;2023-07-13T00:16:56;6.10;;;3.50;;
2906;SDS011;1463;51.070;16.998;2023-07-13T00:19:25;4.53;;;3.27;;
2906;SDS011;1463;51.070;16.998;2023-07-13T00:21:53;5.60;;;3.00;;
2906;SDS011;1463;51.070;16.998;2023-07-13T00:24:21;4.97;;;2.93;;
2906;SDS011;1463;51.070;16.998;2023-07-13T00:26:50;4.70;;;3.10;;
2906;SDS011;1463;51.070;16.998;2023-07-13T00:29:18;6.33;;;3.40;;
2906;SDS011;1463;51.070;16.998;2023-07-13T00:31:46;4.00;;;2.63;;
2906;SDS011;1463;51.070;16.998;2023-07-13T00:34:13;6.17;;;3.47;;
2906;SDS011;1463;51.070;16.998;2023-07-13T00:36:41;4.27;;;3.10;;
2906;SDS011;1463;51.070;16.998;2023-07-13T00:39:08;4.30;;;3.33;;
2906;SDS011;1463;51.070;16.998;2023-07-13T00:41:36;5.87;;;3.87;;
2906;SDS011;1463;51.070;16.998;2023-07-13T00:44:08;5.20;;;4.07;;
2906;SDS011;1463;51.070;16.998;2023-07-13T00:46:40;6.53;;;4.20;;
2906;SDS011;1463;51.070;16.998;2023-07-13T00:49:08;5.90;;;3.93;;
2906;SDS011;1463;51.070;16.998;2023-07-13T00:51:39;7.60;;;3.20;;
2906;SDS011;1463;51.070;16.998;2023-07-13T00:54:13;5.83;;;3.33;;
2906;SDS011;1463;51.070;16.998;2023-07-13T00:56:45;6.97;;;3.70;;
2906;SDS011;1463;51.070;16.998;2023-07-13T00:59:16;5.23;;;3.13;;
2906;SDS011;1463;51.070;16.998;2023-07-13T01:01:45;4.90;;;3.87;;
2906;SDS011;1463;51.070;16.998;2023-07-13T01:04:12;5.40;;;3.83;;
2906;SDS011;1463;51.070;16.998;2023-07-13T01:06:40;5.83;;;3.33;;
2906;SDS011;1463;51.070;16.998;2023-07-13T01:09:09;5.80;;;2.80;;
2906;SDS011;1463;51.070;16.998;2023-07-13T01:11:37;5.50;;;3.37;;
2906;SDS011;1463;51.070;16.998;2023-07-13T01:14:06;6.07;;;3.37;;
2906;SDS011;1463;51.070;16.998;2023-07-13T01:16:35;5.00;;;3.30;;
2906;SDS011;1463;51.070;16.998;2023-07-13T01:19:06;5.57;;;3.37;;
2906;SDS011;1463;51.070;16.998;2023-07-13T01:21:43;7.80;;;3.20;;
2906;SDS011;1463;51.070;16.998;2023-07-13T01:24:16;13.10;;;3.30;;
2906;SDS011;1463;51.070;16.998;2023-07-13T01:26:43;7.77;;;3.27;;
2906;SDS011;1463;51.070;16.998;2023-07-13T01:29:11;5.17;;;3.43;;
2906;SDS011;1463;51.070;16.998;2023-07-13T01:31:38;6.40;;;3.33;;
2906;SDS011;1463;51.070;16.998;2023-07-13T01:34:06;6.70;;;3.07;;
2906;SDS011;1463;51.070;16.998;2023-07-13T01:36:33;4.93;;;3.60;;
2906;SDS011;1463;51.070;16.998;2023-07-13T01:39:02;7.83;;;3.93;;
2906;SDS011;1463;51.070;16.998;2023-07-13T01:41:30;7.97;;;3.97;;
2906;SDS011;1463;51.070;16.998;2023-07-13T01:43:57;5.23;;;3.40;;
2906;SDS011;1463;51.070;16.998;2023-07-13T01:46:26;5.20;;;3.10;;
2906;SDS011;1463;51.070;16.998;2023-07-13T01:48:54;5.47;;;3.40;;
2906;SDS011;1463;51.070;16.998;2023-07-13T01:51:21;6.70;;;3.73;;
2906;SDS011;1463;51.070;16.998;2023-07-13T01:53:49;6.30;;;3.40;;
2906;SDS011;1463;51.070;16.998;2023-07-13T01:56:18;5.60;;;3.37;;
2906;SDS011;1463;51.070;16.998;2023-07-13T01:58:46;6.17;;;3.57;;
2906;SDS011;1463;51.070;16.998;2023-07-13T02:01:13;5.30;;;3.43;;
2906;SDS011;1463;51.070;16.998;2023-07-13T02:03:41;5.50;;;3.50;;
2906;SDS011;1463;51.070;16.998;2023-07-13T02:06:08;8.07;;;4.70;;
2906;SDS011;1463;51.070;16.998;2023-07-13T02:08:37;9.00;;;4.60;;
2906;SDS011;1463;51.070;16.998;2023-07-13T02:11:04;7.63;;;4.73;;
2906;SDS011;1463;51.070;16.998;2023-07-13T02:13:33;6.00;;;3.33;;
2906;SDS011;1463;51.070;16.998;2023-07-13T02:16:01;5.60;;;3.43;;
2906;SDS011;1463;51.070;16.998;2023-07-13T02:18:28;6.50;;;4.00;;
2906;SDS011;1463;51.070;16.998;2023-07-13T02:20:56;9.23;;;5.57;;
2906;SDS011;1463;51.070;16.998;2023-07-13T02:23:23;6.47;;;3.73;;
2906;SDS011;1463;51.070;16.998;2023-07-13T02:25:54;8.13;;;4.07;;
2906;SDS011;1463;51.070;16.998;2023-07-13T02:28:22;5.43;;;3.20;;
2906;SDS011;1463;51.070;16.998;2023-07-13T02:30:51;8.10;;;3.93;;
2906;SDS011;1463;51.070;16.998;2023-07-13T02:33:18;6.30;;;3.90;;
2906;SDS011;1463;51.070;16.998;2023-07-13T02:35:46;12.73;;;4.47;;
2906;SDS011;1463;51.070;16.998;2023-07-13T02:38:13;5.90;;;4.47;;
2906;SDS011;1463;51.070;16.998;2023-07-13T02:40:40;5.87;;;3.67;;
2906;SDS011;1463;51.070;16.998;2023-07-13T02:43:08;9.30;;;4.57;;
2906;SDS011;1463;51.070;16.998;2023-07-13T02:45:35;6.80;;;4.37;;
2906;SDS011;1463;51.070;16.998;2023-07-13T02:48:06;5.50;;;3.60;;
2906;SDS011;1463;51.070;16.998;2023-07-13T02:50:33;5.17;;;3.53;;
2906;SDS011;1463;51.070;16.998;2023-07-13T02:53:00;5.97;;;3.60;;
2906;SDS011;1463;51.070;16.998;2023-07-13T02:55:28;5.70;;;3.50;;
2906;SDS011;1463;51.070;16.998;2023-07-13T02:57:55;6.37;;;3.63;;
2906;SDS011;1463;51.070;16.998;2023-07-13T03:00:23;5.20;;;3.90;;
2906;SDS011;1463;51.070;16.998;2023-07-13T03:02:51;10.30;;;4.53;;
2906;SDS011;1463;51.070;16.998;2023-07-13T03:05:20;7.00;;;4.30;;
2906;SDS011;1463;51.070;16.998;2023-07-13T03:07:47;10.90;;;5.00;;
2906;SDS011;1463;51.070;16.998;2023-07-13T03:10:15;6.57;;;3.10;;
2906;SDS011;1463;51.070;16.998;2023-07-13T03:12:43;4.97;;;2.93;;
2906;SDS011;1463;51.070;16.998;2023-07-13T03:15:10;6.10;;;3.80;;
2906;SDS011;1463;51.070;16.998;2023-07-13T03:17:40;11.80;;;3.80;;
2906;SDS011;1463;51.070;16.998;2023-07-13T03:20:10;4.60;;;3.60;;
2906;SDS011;1463;51.070;16.998;2023-07-13T03:22:39;5.53;;;3.50;;
2906;SDS011;1463;51.070;16.998;2023-07-13T03:25:09;5.00;;;3.10;;
2906;SDS011;1463;51.070;16.998;2023-07-13T03:27:36;5.90;;;4.07;;
2906;SDS011;1463;51.070;16.998;2023-07-13T03:30:04;4.30;;;3.40;;
2906;SDS011;1463;51.070;16.998;2023-07-13T03:32:36;4.40;;;2.83;;
2906;SDS011;1463;51.070;16.998;2023-07-13T03:35:04;4.73;;;3.20;;
2906;SDS011;1463;51.070;16.998;2023-07-13T03:37:34;4.83;;;3.10;;
2906;SDS011;1463;51.070;16.998;2023-07-13T03:40:07;6.53;;;3.30;;
2906;SDS011;1463;51.070;16.998;2023-07-13T03:42:37;7.50;;;3.40;;
2906;SDS011;1463;51.070;16.998;2023-07-13T03:45:05;5.80;;;3.80;;
2906;SDS011;1463;51.070;16.998;2023-07-13T03:47:33;7.97;;;4.40;;
2906;SDS011;1463;51.070;16.998;2023-07-13T03:50:01;6.13;;;3.13;;
2906;SDS011;1463;51.070;16.998;2023-07-13T03:52:28;6.63;;;3.50;;
2906;SDS011;1463;51.070;16.998;2023-07-13T03:54:56;5.60;;;3.70;;
2906;SDS011;1463;51.070;16.998;2023-07-13T03:57:25;4.77;;;2.70;;
2906;SDS011;1463;51.070;16.998;2023-07-13T03:59:52;6.63;;;3.73;;
2906;SDS011;1463;51.070;16.998;2023-07-13T04:02:20;4.23;;;3.00;;
2906;SDS011;1463;51.070;16.998;2023-07-13T04:04:47;4.73;;;3.20;;
2906;SDS011;1463;51.070;16.998;2023-07-13T04:07:15;6.63;;;2.97;;
2906;SDS011;1463;51.070;16.998;2023-07-13T04:09:43;6.17;;;3.03;;
2906;SDS011;1463;51.070;16.998;2023-07-13T04:12:10;4.87;;;2.87;;
2906;SDS011;1463;51.070;16.998;2023-07-13T04:14:42;6.20;;;3.03;;
2906;SDS011;1463;51.070;16.998;2023-07-13T04:17:11;5.33;;;2.60;;
2906;SDS011;1463;51.070;16.998;2023-07-13T04:19:39;6.40;;;3.23;;
2906;SDS011;1463;51.070;16.998;2023-07-13T04:22:06;3.90;;;3.10;;
2906;SDS011;1463;51.070;16.998;2023-07-13T04:24:35;5.10;;;3.07;;
2906;SDS011;1463;51.070;16.998;2023-07-13T04:27:02;4.90;;;3.20;;
2906;SDS011;1463;51.070;16.998;2023-07-13T04:29:31;6.30;;;4.00;;
2906;SDS011;1463;51.070;16.998;2023-07-13T04:32:04;5.43;;;3.13;;
2906;SDS011;1463;51.070;16.998;2023-07-13T04:34:34;4.97;;;2.90;;
2906;SDS011;1463;51.070;16.998;2023-07-13T04:37:02;4.90;;;2.30;;
2906;SDS011;1463;51.070;16.998;2023-07-13T04:39:29;4.30;;;2.67;;
2906;SDS011;1463;51.070;16.998;2023-07-13T04:41:57;4.47;;;2.80;;
2906;SDS011;1463;51.070;16.998;2023-07-13T04:44:25;4.40;;;2.60;;
2906;SDS011;1463;51.070;16.998;2023-07-13T04:46:53;5.77;;;2.90;;
2906;SDS011;1463;51.070;16.998;2023-07-13T04:49:24;5.93;;;2.63;;
2906;SDS011;1463;51.070;16.998;2023-07-13T04:51:54;6.37;;;2.60;;
2906;SDS011;1463;51.070;16.998;2023-07-13T04:54:28;3.33;;;2.10;;
2906;SDS011;1463;51.070;16.998;2023-07-13T04:57:03;13.40;;;3.23;;
2906;SDS011;1463;51.070;16.998;2023-07-13T04:59:37;4.43;;;2.90;;
2906;SDS011;1463;51.070;16.998;2023-07-13T05:02:09;7.30;;;2.93;;
2906;SDS011;1463;51.070;16.998;2023-07-13T05:04:38;5.27;;;2.57;;
2906;SDS011;1463;51.070;16.998;2023-07-13T05:07:06;3.17;;;2.27;;
2906;SDS011;1463;51.070;16.998;2023-07-13T05:09:33;4.57;;;2.30;;
2906;SDS011;1463;51.070;16.998;2023-07-13T05:12:02;5.67;;;2.93;;
2906;SDS011;1463;51.070;16.998;2023-07-13T05:14:30;2.83;;;2.10;;
2906;SDS011;1463;51.070;16.998;2023-07-13T05:16:58;8.40;;;2.50;;
2906;SDS011;1463;51.070;16.998;2023-07-13T05:19:25;4.50;;;2.40;;
2906;SDS011;1463;51.070;16.998;2023-07-13T05:21:54;3.40;;;2.13;;
2906;SDS011;1463;51.070;16.998;2023-07-13T05:24:22;3.50;;;2.40;;
2906;SDS011;1463;51.070;16.998;2023-07-13T05:26:51;4.27;;;1.93;;
2906;SDS011;1463;51.070;16.998;2023-07-13T05:29:19;4.73;;;2.27;;
2906;SDS011;1463;51.070;16.998;2023-07-13T05:31:47;3.03;;;1.90;;
2906;SDS011;1463;51.070;16.998;2023-07-13T05:34:15;3.10;;;1.90;;
2906;SDS011;1463;51.070;16.998;2023-07-13T05:36:43;3.20;;;1.80;;
2906;SDS011;1463;51.070;16.998;2023-07-13T05:39:12;3.70;;;2.30;;
2906;SDS011;1463;51.070;16.998;2023-07-13T05:41:40;3.03;;;1.80;;
2906;SDS011;1463;51.070;16.998;2023-07-13T05:44:07;4.20;;;2.20;;
2906;SDS011;1463;51.070;16.998;2023-07-13T05:46:35;3.07;;;1.70;;
2906;SDS011;1463;51.070;16.998;2023-07-13T05:49:02;3.40;;;2.00;;
2906;SDS011;1463;51.070;16.998;2023-07-13T05:51:30;2.77;;;1.67;;
2906;SDS011;1463;51.070;16.998;2023-07-13T05:53:57;4.10;;;2.37;;
2906;SDS011;1463;51.070;16.998;2023-07-13T05:56:27;5.83;;;2.60;;
2906;SDS011;1463;51.070;16.998;2023-07-13T05:58:55;3.30;;;1.93;;
2906;SDS011;1463;51.070;16.998;2023-07-13T06:01:23;4.40;;;2.30;;
2906;SDS011;1463;51.070;16.998;2023-07-13T06:03:51;4.57;;;2.17;;
2906;SDS011;1463;51.070;16.998;2023-07-13T06:06:20;4.40;;;2.83;;
2906;SDS011;1463;51.070;16.998;2023-07-13T06:08:48;3.47;;;2.30;;
2906;SDS011;1463;51.070;16.998;2023-07-13T06:11:16;3.37;;;2.17;;
2906;SDS011;1463;51.070;16.998;2023-07-13T06:13:49;3.70;;;2.60;;
2906;SDS011;1463;51.070;16.998;2023-07-13T06:16:17;3.97;;;2.10;;
2906;SDS011;1463;51.070;16.998;2023-07-13T06:18:45;3.63;;;2.60;;
2906;SDS011;1463;51.070;16.998;2023-07-13T06:21:13;3.60;;;2.63;;
2906;SDS011;1463;51.070;16.998;2023-07-13T06:23:42;4.33;;;2.50;;
2906;SDS011;1463;51.070;16.998;2023-07-13T06:26:13;2.70;;;1.97;;
2906;SDS011;1463;51.070;16.998;2023-07-13T06:28:40;5.40;;;2.23;;
2906;SDS011;1463;51.070;16.998;2023-07-13T06:31:10;5.10;;;2.60;;
2906;SDS011;1463;51.070;16.998;2023-07-13T06:33:38;4.00;;;2.00;;
2906;SDS011;1463;51.070;16.998;2023-07-13T06:36:06;4.70;;;2.00;;
2906;SDS011;1463;51.070;16.998;2023-07-13T06:38:35;6.50;;;2.50;;
2906;SDS011;1463;51.070;16.998;2023-07-13T06:41:02;6.60;;;1.97;;
2906;SDS011;1463;51.070;16.998;2023-07-13T06:43:30;7.60;;;2.20;;
2906;SDS011;1463;51.070;16.998;2023-07-13T06:45:58;5.00;;;2.63;;
2906;SDS011;1463;51.070;16.998;2023-07-13T06:48:27;4.63;;;3.40;;
2906;SDS011;1463;51.070;16.998;2023-07-13T06:50:55;3.33;;;2.43;;
2906;SDS011;1463;51.070;16.998;2023-07-13T06:53:22;3.83;;;1.90;;
2906;SDS011;1463;51.070;16.998;2023-07-13T06:55:50;4.20;;;2.20;;
2906;SDS011;1463;51.070;16.998;2023-07-13T06:58:18;4.43;;;2.50;;
2906;SDS011;1463;51.070;16.998;2023-07-13T07:00:49;4.80;;;2.73;;
2906;SDS011;1463;51.070;16.998;2023-07-13T07:03:20;3.63;;;2.60;;
2906;SDS011;1463;51.070;16.998;2023-07-13T07:05:49;4.20;;;2.93;;
2906;SDS011;1463;51.070;16.998;2023-07-13T07:08:19;3.37;;;2.43;;
2906;SDS011;1463;51.070;16.998;2023-07-13T07:10:47;4.93;;;2.63;;
2906;SDS011;1463;51.070;16.998;2023-07-13T07:13:20;6.90;;;2.37;;
2906;SDS011;1463;51.070;16.998;2023-07-13T07:15:49;5.53;;;3.40;;
2906;SDS011;1463;51.070;16.998;2023-07-13T07:18:17;7.73;;;3.47;;
2906;SDS011;1463;51.070;16.998;2023-07-13T07:20:45;5.83;;;3.20;;
2906;SDS011;1463;51.070;16.998;2023-07-13T07:23:16;4.23;;;2.70;;
2906;SDS011;1463;51.070;16.998;2023-07-13T07:25:44;4.10;;;2.50;;
2906;SDS011;1463;51.070;16.998;2023-07-13T07:28:17;3.53;;;2.53;;
2906;SDS011;1463;51.070;16.998;2023-07-13T07:30:45;4.27;;;2.53;;
2906;SDS011;1463;51.070;16.998;2023-07-13T07:33:13;7.13;;;2.80;;
2906;SDS011;1463;51.070;16.998;2023-07-13T07:35:42;3.87;;;2.63;;
2906;SDS011;1463;51.070;16.998;2023-07-13T07:38:10;4.53;;;2.60;;
2906;SDS011;1463;51.070;16.998;2023-07-13T07:40:40;7.13;;;2.40;;
2906;SDS011;1463;51.070;16.998;2023-07-13T07:43:08;3.70;;;2.53;;
2906;SDS011;1463;51.070;16.998;2023-07-13T07:45:36;4.57;;;2.40;;
2906;SDS011;1463;51.070;16.998;2023-07-13T07:48:05;3.90;;;2.43;;
2906;SDS011;1463;51.070;16.998;2023-07-13T07:50:34;4.33;;;2.57;;
2906;SDS011;1463;51.070;16.998;2023-07-13T07:53:04;7.77;;;3.07;;
2906;SDS011;1463;51.070;16.998;2023-07-13T07:55:33;3.77;;;2.70;;
2906;SDS011;1463;51.070;16.998;2023-07-13T07:58:03;4.17;;;2.63;;
2906;SDS011;1463;51.070;16.998;2023-07-13T08:00:31;4.40;;;2.47;;
2906;SDS011;1463;51.070;16.998;2023-07-13T08:02:59;10.00;;;3.57;;
2906;SDS011;1463;51.070;16.998;2023-07-13T08:05:26;4.87;;;3.00;;
2906;SDS011;1463;51.070;16.998;2023-07-13T08:07:53;5.70;;;3.03;;
2906;SDS011;1463;51.070;16.998;2023-07-13T08:10:21;5.77;;;2.80;;
2906;SDS011;1463;51.070;16.998;2023-07-13T08:12:49;6.23;;;2.63;;
2906;SDS011;1463;51.070;16.998;2023-07-13T08:15:18;4.97;;;2.90;;
2906;SDS011;1463;51.070;16.998;2023-07-13T08:17:46;6.30;;;2.80;;
2906;SDS011;1463;51.070;16.998;2023-07-13T08:20:14;5.20;;;3.17;;
2906;SDS011;1463;51.070;16.998;2023-07-13T08:22:42;4.73;;;3.33;;
2906;SDS011;1463;51.070;16.998;2023-07-13T08:25:10;4.83;;;2.63;;
2906;SDS011;1463;51.070;16.998;2023-07-13T08:27:37;6.47;;;3.40;;
2906;SDS011;1463;51.070;16.998;2023-07-13T08:30:05;5.03;;;3.47;;
2906;SDS011;1463;51.070;16.998;2023-07-13T08:32:35;4.23;;;2.50;;
2906;SDS011;1463;51.070;16.998;2023-07-13T08:35:04;4.20;;;2.90;;
2906;SDS011;1463;51.070;16.998;2023-07-13T08:37:32;4.10;;;2.73;;
2906;SDS011;1463;51.070;16.998;2023-07-13T08:40:00;4.20;;;2.63;;
2906;SDS011;1463;51.070;16.998;2023-07-13T08:42:32;5.60;;;2.80;;
2906;SDS011;1463;51.070;16.998;2023-07-13T08:45:06;4.20;;;2.87;;
2906;SDS011;1463;51.070;16.998;2023-07-13T08:47:40;5.17;;;2.57;;
2906;SDS011;1463;51.070;16.998;2023-07-13T08:50:13;6.50;;;2.70;;
2906;SDS011;1463;51.070;16.998;2023-07-13T08:52:45;4.00;;;2.60;;
2906;SDS011;1463;51.070;16.998;2023-07-13T08:55:15;6.87;;;2.67;;
2906;SDS011;1463;51.070;16.998;2023-07-13T08:57:46;4.97;;;2.33;;
2906;SDS011;1463;51.070;16.998;2023-07-13T09:00:17;4.67;;;3.50;;
2906;SDS011;1463;51.070;16.998;2023-07-13T09:02:48;4.47;;;2.70;;
2906;SDS011;1463;51.070;16.998;2023-07-13T09:05:22;4.60;;;3.17;;
2906;SDS011;1463;51.070;16.998;2023-07-13T09:08:04;4.53;;;3.03;;
2906;SDS011;1463;51.070;16.998;2023-07-13T09:10:44;4.47;;;3.30;;
2906;SDS011;1463;51.070;16.998;2023-07-13T09:13:16;6.00;;;3.10;;
2906;SDS011;1463;51.070;16.998;2023-07-13T09:15:53;3.70;;;2.17;;
2906;SDS011;1463;51.070;16.998;2023-07-13T09:18:26;6.53;;;2.60;;
2906;SDS011;1463;51.070;16.998;2023-07-13T09:20:57;3.50;;;2.40;;
2906;SDS011;1463;51.070;16.998;2023-07-13T09:23:29;4.20;;;2.67;;
2906;SDS011;1463;51.070;16.998;2023-07-13T09:25:59;4.97;;;2.87;;
2906;SDS011;1463;51.070;16.998;2023-07-13T09:28:33;4.30;;;2.50;;
2906;SDS011;1463;51.070;16.998;2023-07-13T09:31:06;6.77;;;3.17;;
2906;SDS011;1463;51.070;16.998;2023-07-13T09:33:41;4.37;;;2.83;;
2906;SDS011;1463;51.070;16.998;2023-07-13T09:36:18;6.43;;;3.17;;
2906;SDS011;1463;51.070;16.998;2023-07-13T09:38:46;3.57;;;2.50;;
2906;SDS011;1463;51.070;16.998;2023-07-13T09:41:19;3.90;;;2.90;;
2906;SDS011;1463;51.070;16.998;2023-07-13T09:44:08;5.43;;;3.13;;
2906;SDS011;1463;51.070;16.998;2023-07-13T09:46:38;4.33;;;2.70;;
2906;SDS011;1463;51.070;16.998;2023-07-13T09:49:11;4.17;;;2.57;;
2906;SDS011;1463;51.070;16.998;2023-07-13T09:51:40;5.40;;;2.60;;
2906;SDS011;1463;51.070;16.998;2023-07-13T09:54:17;3.00;;;2.20;;
2906;SDS011;1463;51.070;16.998;2023-07-13T09:56:46;4.10;;;2.40;;
2906;SDS011;1463;51.070;16.998;2023-07-13T09:59:18;5.93;;;2.80;;
2906;SDS011;1463;51.070;16.998;2023-07-13T10:01:46;6.00;;;2.60;;
2906;SDS011;1463;51.070;16.998;2023-07-13T10:04:17;3.33;;;2.00;;
2906;SDS011;1463;51.070;16.998;2023-07-13T10:06:49;4.63;;;2.00;;
2906;SDS011;1463;51.070;16.998;2023-07-13T10:09:32;5.23;;;2.47;;
2906;SDS011;1463;51.070;16.998;2023-07-13T10:12:00;3.33;;;2.17;;
2906;SDS011;1463;51.070;16.998;2023-07-13T10:14:28;3.10;;;1.90;;
2906;SDS011;1463;51.070;16.998;2023-07-13T10:16:58;3.40;;;2.13;;
2906;SDS011;1463;51.070;16.998;2023-07-13T10:19:29;3.23;;;2.03;;
2906;SDS011;1463;51.070;16.998;2023-07-13T10:22:02;5.93;;;1.60;;
2906;SDS011;1463;51.070;16.998;2023-07-13T10:24:40;2.87;;;1.63;;
2906;SDS011;1463;51.070;16.998;2023-07-13T10:27:10;3.00;;;1.63;;
2906;SDS011;1463;51.070;16.998;2023-07-13T10:29:42;2.63;;;1.70;;
2906;SDS011;1463;51.070;16.998;2023-07-13T10:32:14;2.60;;;1.83;;
2906;SDS011;1463;51.070;16.998;2023-07-13T10:34:44;4.70;;;2.23;;
2906;SDS011;1463;51.070;16.998;2023-07-13T10:37:15;3.23;;;1.90;;
2906;SDS011;1463;51.070;16.998;2023-07-13T10:39:47;3.40;;;1.73;;
2906;SDS011;1463;51.070;16.998;2023-07-13T10:42:18;2.70;;;1.53;;
2906;SDS011;1463;51.070;16.998;2023-07-13T10:44:55;2.97;;;1.47;;
2906;SDS011;1463;51.070;16.998;2023-07-13T10:47:23;3.10;;;1.77;;
2906;SDS011;1463;51.070;16.998;2023-07-13T10:49:54;4.90;;;1.80;;
2906;SDS011;1463;51.070;16.998;2023-07-13T10:52:45;2.20;;;1.23;;
2906;SDS011;1463;51.070;16.998;2023-07-13T10:55:32;2.40;;;1.30;;
2906;SDS011;1463;51.070;16.998;2023-07-13T10:58:02;5.80;;;1.77;;
2906;SDS011;1463;51.070;16.998;2023-07-13T11:00:43;2.73;;;1.53;;
2906;SDS011;1463;51.070;16.998;2023-07-13T11:03:17;2.57;;;1.30;;
2906;SDS011;1463;51.070;16.998;2023-07-13T11:06:03;2.63;;;1.33;;
2906;SDS011;1463;51.070;16.998;2023-07-13T11:08:35;2.27;;;1.07;;
2906;SDS011;1463;51.070;16.998;2023-07-13T11:11:04;2.70;;;2.03;;
2906;SDS011;1463;51.070;16.998;2023-07-13T11:14:00;2.60;;;1.30;;
2906;SDS011;1463;51.070;16.998;2023-07-13T11:16:34;3.90;;;1.67;;
2906;SDS011;1463;51.070;16.998;2023-07-13T11:19:23;2.87;;;1.80;;
2906;SDS011;1463;51.070;16.998;2023-07-13T11:22:11;3.83;;;1.63;;
2906;SDS011;1463;51.070;16.998;2023-07-13T11:24:49;2.73;;;1.60;;
2906;SDS011;1463;51.070;16.998;2023-07-13T11:27:21;3.13;;;1.50;;
2906;SDS011;1463;51.070;16.998;2023-07-13T11:30:06;2.60;;;1.37;;
2906;SDS011;1463;51.070;16.998;2023-07-13T11:32:50;3.23;;;1.53;;
2906;SDS011;1463;51.070;16.998;2023-07-13T11:35:31;2.90;;;1.80;;
2906;SDS011;1463;51.070;16.998;2023-07-13T11:38:02;3.40;;;1.53;;
2906;SDS011;1463;51.070;16.998;2023-07-13T11:40:36;4.03;;;1.90;;
2906;SDS011;1463;51.070;16.998;2023-07-13T11:43:04;3.90;;;1.73;;
2906;SDS011;1463;51.070;16.998;2023-07-13T11:45:33;2.73;;;1.70;;
2906;SDS011;1463;51.070;16.998;2023-07-13T11:48:01;3.37;;;1.80;;
2906;SDS011;1463;51.070;16.998;2023-07-13T11:50:29;6.27;;;1.90;;
2906;SDS011;1463;51.070;16.998;2023-07-13T11:52:57;2.40;;;1.40;;
2906;SDS011;1463;51.070;16.998;2023-07-13T11:55:27;2.57;;;1.30;;
2906;SDS011;1463;51.070;16.998;2023-07-13T11:57:56;2.43;;;1.40;;
2906;SDS011;1463;51.070;16.998;2023-07-13T12:00:28;4.53;;;1.53;;
2906;SDS011;1463;51.070;16.998;2023-07-13T12:02:59;3.03;;;1.83;;
2906;SDS011;1463;51.070;16.998;2023-07-13T12:05:30;3.10;;;1.43;;
2906;SDS011;1463;51.070;16.998;2023-07-13T12:07:58;2.43;;;1.30;;
2906;SDS011;1463;51.070;16.998;2023-07-13T12:10:27;2.20;;;1.30;;
2906;SDS011;1463;51.070;16.998;2023-07-13T12:12:58;3.63;;;1.70;;
2906;SDS011;1463;51.070;16.998;2023-07-13T12:15:28;3.20;;;1.37;;
2906;SDS011;1463;51.070;16.998;2023-07-13T12:18:08;2.20;;;1.40;;
2906;SDS011;1463;51.070;16.998;2023-07-13T12:20:39;3.50;;;1.40;;
2906;SDS011;1463;51.070;16.998;2023-07-13T12:23:11;2.30;;;1.33;;
2906;SDS011;1463;51.070;16.998;2023-07-13T12:25:48;3.10;;;1.97;;
2906;SDS011;1463;51.070;16.998;2023-07-13T12:28:20;4.10;;;1.53;;
2906;SDS011;1463;51.070;16.998;2023-07-13T12:30:49;4.37;;;1.73;;
2906;SDS011;1463;51.070;16.998;2023-07-13T12:33:24;2.77;;;1.37;;
2906;SDS011;1463;51.070;16.998;2023-07-13T12:35:56;3.30;;;1.30;;
2906;SDS011;1463;51.070;16.998;2023-07-13T12:38:27;3.80;;;1.77;;
2906;SDS011;1463;51.070;16.998;2023-07-13T12:40:56;3.23;;;1.30;;
2906;SDS011;1463;51.070;16.998;2023-07-13T12:43:25;2.23;;;1.43;;
2906;SDS011;1463;51.070;16.998;2023-07-13T12:45:57;2.60;;;1.20;;
2906;SDS011;1463;51.070;16.998;2023-07-13T12:48:27;2.50;;;1.60;;
2906;SDS011;1463;51.070;16.998;2023-07-13T12:50:55;5.00;;;1.97;;
2906;SDS011;1463;51.070;16.998;2023-07-13T12:53:30;2.20;;;1.20;;
2906;SDS011;1463;51.070;16.998;2023-07-13T12:56:11;3.40;;;1.33;;
2906;SDS011;1463;51.070;16.998;2023-07-13T12:58:48;4.50;;;1.60;;
2906;SDS011;1463;51.070;16.998;2023-07-13T13:01:20;3.63;;;1.37;;
2906;SDS011;1463;51.070;16.998;2023-07-13T13:03:49;3.10;;;1.60;;
2906;SDS011;1463;51.070;16.998;2023-07-13T13:06:20;3.27;;;1.77;;
2906;SDS011;1463;51.070;16.998;2023-07-13T13:08:52;3.50;;;1.87;;
2906;SDS011;1463;51.070;16.998;2023-07-13T13:11:23;2.50;;;1.50;;
2906;SDS011;1463;51.070;16.998;2023-07-13T13:13:52;3.13;;;1.50;;
2906;SDS011;1463;51.070;16.998;2023-07-13T13:16:21;3.07;;;1.70;;
2906;SDS011;1463;51.070;16.998;2023-07-13T13:18:53;2.57;;;1.30;;
2906;SDS011;1463;51.070;16.998;2023-07-13T13:21:23;2.77;;;1.13;;
2906;SDS011;1463;51.070;16.998;2023-07-13T13:23:51;2.40;;;1.10;;
2906;SDS011;1463;51.070;16.998;2023-07-13T13:26:19;3.70;;;1.30;;
2906;SDS011;1463;51.070;16.998;2023-07-13T13:28:49;2.40;;;1.20;;
2906;SDS011;1463;51.070;16.998;2023-07-13T13:31:20;3.17;;;1.77;;
2906;SDS011;1463;51.070;16.998;2023-07-13T13:33:47;3.50;;;1.60;;
2906;SDS011;1463;51.070;16.998;2023-07-13T13:36:19;4.77;;;1.83;;
2906;SDS011;1463;51.070;16.998;2023-07-13T13:38:49;2.87;;;1.40;;
2906;SDS011;1463;51.070;16.998;2023-07-13T13:41:17;3.10;;;1.27;;
2906;SDS011;1463;51.070;16.998;2023-07-13T13:43:44;2.50;;;1.43;;
2906;SDS011;1463;51.070;16.998;2023-07-13T13:46:16;3.80;;;1.73;;
2906;SDS011;1463;51.070;16.998;2023-07-13T13:48:46;2.20;;;1.20;;
2906;SDS011;1463;51.070;16.998;2023-07-13T13:51:16;2.60;;;1.30;;
2906;SDS011;1463;51.070;16.998;2023-07-13T13:53:45;2.33;;;1.33;;
2906;SDS011;1463;51.070;16.998;2023-07-13T13:56:14;4.47;;;1.60;;
2906;SDS011;1463;51.070;16.998;2023-07-13T13:58:42;2.30;;;1.10;;
2906;SDS011;1463;51.070;16.998;2023-07-13T14:01:12;3.33;;;1.10;;
2906;SDS011;1463;51.070;16.998;2023-07-13T14:03:43;2.57;;;1.20;;
2906;SDS011;1463;51.070;16.998;2023-07-13T14:06:14;2.83;;;1.20;;
2906;SDS011;1463;51.070;16.998;2023-07-13T14:08:45;2.20;;;1.07;;
2906;SDS011;1463;51.070;16.998;2023-07-13T14:11:15;2.30;;;1.10;;
2906;SDS011;1463;51.070;16.998;2023-07-13T14:13:44;2.80;;;1.17;;
2906;SDS011;1463;51.070;16.998;2023-07-13T14:16:16;2.20;;;1.20;;
2906;SDS011;1463;51.070;16.998;2023-07-13T14:18:46;2.53;;;1.20;;
2906;SDS011;1463;51.070;16.998;2023-07-13T14:21:15;2.30;;;1.10;;
2906;SDS011;1463;51.070;16.998;2023-07-13T14:23:44;2.03;;;1.00;;
2906;SDS011;1463;51.070;16.998;2023-07-13T14:26:13;4.17;;;1.53;;
2906;SDS011;1463;51.070;16.998;2023-07-13T14:28:42;2.60;;;1.10;;
2906;SDS011;1463;51.070;16.998;2023-07-13T14:31:12;2.37;;;1.20;;
2906;SDS011;1463;51.070;16.998;2023-07-13T14:33:41;2.40;;;1.13;;
2906;SDS011;1463;51.070;16.998;2023-07-13T14:36:16;4.43;;;2.70;;
2906;SDS011;1463;51.070;16.998;2023-07-13T14:38:51;2.33;;;1.10;;
2906;SDS011;1463;51.070;16.998;2023-07-13T14:41:18;2.97;;;1.33;;
2906;SDS011;1463;51.070;16.998;2023-07-13T14:43:46;2.57;;;1.10;;
2906;SDS011;1463;51.070;16.998;2023-07-13T14:46:28;2.23;;;1.27;;
2906;SDS011;1463;51.070;16.998;2023-07-13T14:48:59;3.73;;;0.90;;
2906;SDS011;1463;51.070;16.998;2023-07-13T14:51:31;2.50;;;1.20;;
2906;SDS011;1463;51.070;16.998;2023-07-13T14:54:01;2.50;;;1.17;;
2906;SDS011;1463;51.070;16.998;2023-07-13T14:56:30;2.83;;;1.07;;
2906;SDS011;1463;51.070;16.998;2023-07-13T14:58:57;2.20;;;1.00;;
2906;SDS011;1463;51.070;16.998;2023-07-13T15:01:25;2.13;;;0.90;;
2906;SDS011;1463;51.070;16.998;2023-07-13T15:03:53;2.57;;;1.00;;
2906;SDS011;1463;51.070;16.998;2023-07-13T15:06:20;2.30;;;1.27;;
2906;SDS011;1463;51.070;16.998;2023-07-13T15:08:49;2.17;;;1.27;;
2906;SDS011;1463;51.070;16.998;2023-07-13T15:11:17;3.87;;;1.57;;
2906;SDS011;1463;51.070;16.998;2023-07-13T15:13:44;2.70;;;1.10;;
2906;SDS011;1463;51.070;16.998;2023-07-13T15:16:14;2.37;;;1.00;;
2906;SDS011;1463;51.070;16.998;2023-07-13T15:18:44;2.10;;;0.97;;